Time;durP1;ratioP1;P1;durP2;ratioP2;P2;SDS_P1;SDS_P2;PMS_P1;PMS_P2;Temp;Humidity;BMP_temperature;BMP_pressure;BME280_temperature;BME280_humidity;BME280_pressure;Samples;Min_cycle;Max_cycle;Signal;HPM_P1;HPM_P2
2022/01/05 00:01:26;;;;;;;11.98;1.83;;;;;;;;;;5148529;27;20075;-56
2022/01/05 00:03:52;;;;;;;9.82;2.47;;;;;;;;;;5148463;27;20045;-57
2022/01/05 00:06:18;;;;;;;13.10;2.55;;;;;;;;;;5147982;27;20043;-56
2022/01/05 00:08:44;;;;;;;12.95;2.35;;;;;;;;;;5148183;27;20068;-55
2022/01/05 00:11:10;;;;;;;8.52;1.77;;;;;;;;;;5148418;27;20035;-55
2022/01/05 00:13:37;;;;;;;14.77;2.85;;;;;;;;;;5148157;27;20132;-57
2022/01/05 00:16:03;;;;;;;12.13;2.47;;;;;;;;;;5148066;27;20047;-55
2022/01/05 00:18:31;;;;;;;15.60;2.70;;;;;;;;;;5147871;27;20086;-56
2022/01/05 00:20:59;;;;;;;8.05;1.70;;;;;;;;;;5147578;27;20047;-55
2022/01/05 00:23:25;;;;;;;6.75;1.48;;;;;;;;;;5148160;27;20047;-56
2022/01/05 00:25:51;;;;;;;16.10;2.40;;;;;;;;;;5148071;27;20497;-57
2022/01/05 00:28:18;;;;;;;14.75;2.20;;;;;;;;;;5147797;27;20194;-55
2022/01/05 00:30:44;;;;;;;11.60;3.08;;;;;;;;;;5147928;27;20181;-56
2022/01/05 00:33:10;;;;;;;27.73;2.70;;;;;;;;;;5148415;27;20039;-56
2022/01/05 00:35:36;;;;;;;16.70;2.58;;;;;;;;;;5146824;27;20102;-57
2022/01/05 00:38:02;;;;;;;19.75;3.35;;;;;;;;;;5147743;27;20080;-58
2022/01/05 00:40:28;;;;;;;9.13;3.08;;;;;;;;;;5147709;27;20070;-56
2022/01/05 00:42:55;;;;;;;17.35;3.05;;;;;;;;;;5148030;27;20430;-56
2022/01/05 00:45:21;;;;;;;12.48;3.22;;;;;;;;;;5147933;27;20039;-56
2022/01/05 00:47:47;;;;;;;12.63;2.40;;;;;;;;;;5147484;27;20098;-56
2022/01/05 00:50:13;;;;;;;22.80;2.30;;;;;;;;;;5146605;27;20058;-56
2022/01/05 00:52:39;;;;;;;15.73;1.90;;;;;;;;;;5147706;27;20039;-54
2022/01/05 00:55:05;;;;;;;13.10;2.55;;;;;;;;;;5147369;27;20096;-56
2022/01/05 00:57:32;;;;;;;17.17;2.63;;;;;;;;;;5128903;27;20039;-57
2022/01/05 00:59:58;;;;;;;16.88;3.10;;;;;;;;;;5147535;27;20054;-56
2022/01/05 01:02:24;;;;;;;16.73;2.65;;;;;;;;;;5147587;27;20051;-56
2022/01/05 01:04:50;;;;;;;18.63;3.15;;;;;;;;;;5146600;27;20043;-57
2022/01/05 01:07:16;;;;;;;13.35;3.05;;;;;;;;;;5146477;27;20043;-57
2022/01/05 01:09:42;;;;;;;13.73;2.33;;;;;;;;;;5131816;27;20055;-55
2022/01/05 01:12:09;;;;;;;21.38;3.28;;;;;;;;;;5126609;28;20169;-57
2022/01/05 01:14:35;;;;;;;14.00;2.58;;;;;;;;;;5126626;28;20047;-55
2022/01/05 01:17:01;;;;;;;19.83;3.22;;;;;;;;;;5126525;28;20058;-56
2022/01/05 01:19:27;;;;;;;19.30;3.25;;;;;;;;;;5144681;27;20051;-57
2022/01/05 01:21:55;;;;;;;16.45;3.13;;;;;;;;;;5146234;27;20035;-56
2022/01/05 01:24:21;;;;;;;9.40;2.13;;;;;;;;;;5147107;27;20066;-55
2022/01/05 01:26:47;;;;;;;20.77;3.17;;;;;;;;;;5146804;27;20569;-56
2022/01/05 01:29:13;;;;;;;13.80;2.83;;;;;;;;;;5146652;27;20043;-56
2022/01/05 01:31:39;;;;;;;9.15;3.65;;;;;;;;;;5146535;27;20065;-56
2022/01/05 01:34:06;;;;;;;19.02;2.40;;;;;;;;;;5146393;27;20407;-57
2022/01/05 01:36:32;;;;;;;20.30;3.63;;;;;;;;;;5145913;27;20106;-56
2022/01/05 01:38:59;;;;;;;14.23;2.58;;;;;;;;;;5128159;27;20051;-56
2022/01/05 01:41:25;;;;;;;15.57;2.78;;;;;;;;;;5146398;27;20054;-57
2022/01/05 01:43:51;;;;;;;15.77;3.17;;;;;;;;;;5146840;27;20111;-55
2022/01/05 01:46:18;;;;;;;13.75;2.88;;;;;;;;;;5146087;27;20071;-56
2022/01/05 01:48:44;;;;;;;9.70;2.47;;;;;;;;;;5146321;27;20039;-55
2022/01/05 01:51:11;;;;;;;12.65;3.00;;;;;;;;;;5145792;27;20043;-57
2022/01/05 01:53:37;;;;;;;16.52;2.88;;;;;;;;;;5146225;27;20102;-55
2022/01/05 01:56:03;;;;;;;12.60;2.47;;;;;;;;;;5146539;27;20107;-56
2022/01/05 01:58:34;;;;;;;15.52;3.40;;;;;;;;;;5145940;27;20035;-56
2022/01/05 02:01:00;;;;;;;16.92;2.72;;;;;;;;;;5146163;27;20121;-54
2022/01/05 02:03:26;;;;;;;18.50;3.20;;;;;;;;;;5145892;27;20079;-55
2022/01/05 02:05:52;;;;;;;20.10;3.47;;;;;;;;;;5145204;27;20497;-56
2022/01/05 02:08:18;;;;;;;16.85;2.67;;;;;;;;;;5146200;27;20098;-55
2022/01/05 02:10:45;;;;;;;19.73;3.33;;;;;;;;;;5146353;27;20043;-54
2022/01/05 02:13:11;;;;;;;14.13;3.00;;;;;;;;;;5145845;27;20039;-56
2022/01/05 02:15:37;;;;;;;20.00;3.85;;;;;;;;;;5145592;27;20047;-55
2022/01/05 02:20:31;;;;;;;13.40;3.42;;;;;;;;;;5144168;27;20066;-54
2022/01/05 02:22:57;;;;;;;;;;;;;;;;;;5146226;27;20047;-57
2022/01/05 02:25:24;;;;;;;23.13;2.58;;;;;;;;;;5145706;27;19951;-55
2022/01/05 02:27:51;;;;;;;10.88;1.95;;;;;;;;;;5145754;27;20098;-54
2022/01/05 02:30:19;;;;;;;21.92;4.28;;;;;;;;;;5145820;27;20074;-54
2022/01/05 02:32:45;;;;;;;;;;;;;;;;;;5145882;27;20121;-57
2022/01/05 02:35:11;;;;;;;20.52;2.60;;;;;;;;;;5144885;27;19926;-56
2022/01/05 02:37:42;;;;;;;20.27;3.30;;;;;;;;;;5145612;27;20633;-53
2022/01/05 02:40:10;;;;;;;11.70;3.20;;;;;;;;;;5145759;27;20051;-56
2022/01/05 02:42:36;;;;;;;20.40;3.95;;;;;;;;;;5145542;27;20094;-56
2022/01/05 02:45:02;;;;;;;17.85;3.20;;;;;;;;;;5145385;27;20051;-56
2022/01/05 02:47:28;;;;;;;18.33;3.22;;;;;;;;;;5145314;27;20195;-54
2022/01/05 02:49:57;;;;;;;8.43;2.90;;;;;;;;;;5145106;27;20078;-55
2022/01/05 02:52:23;;;;;;;18.35;2.72;;;;;;;;;;5145320;27;20495;-55
2022/01/05 02:54:49;;;;;;;15.90;2.63;;;;;;;;;;5145705;27;20074;-56
2022/01/05 02:57:16;;;;;;;19.27;3.33;;;;;;;;;;5127099;28;20050;-54
2022/01/05 02:59:42;;;;;;;17.23;2.60;;;;;;;;;;5145362;28;20129;-56
2022/01/05 03:02:08;;;;;;;21.35;3.90;;;;;;;;;;5144976;28;20103;-56
2022/01/05 03:04:34;;;;;;;14.40;3.75;;;;;;;;;;5145139;28;20051;-56
2022/01/05 03:07:00;;;;;;;18.23;3.10;;;;;;;;;;5145136;28;20039;-56
2022/01/05 03:09:27;;;;;;;17.65;3.03;;;;;;;;;;5145468;28;20050;-56
2022/01/05 03:11:53;;;;;;;19.08;3.67;;;;;;;;;;5144925;28;20043;-55
2022/01/05 03:14:20;;;;;;;11.70;2.45;;;;;;;;;;5145248;28;20094;-56
2022/01/05 03:16:46;;;;;;;17.35;3.20;;;;;;;;;;5144843;28;20107;-54
2022/01/05 03:19:12;;;;;;;17.98;2.70;;;;;;;;;;5144922;28;20051;-56
2022/01/05 03:21:38;;;;;;;17.35;2.63;;;;;;;;;;5144881;28;20051;-53
2022/01/05 03:24:04;;;;;;;17.17;2.90;;;;;;;;;;5145162;28;20043;-55
2022/01/05 03:26:30;;;;;;;20.77;3.70;;;;;;;;;;5145054;28;20118;-55
2022/01/05 03:28:56;;;;;;;12.30;2.70;;;;;;;;;;5148050;27;20054;-55
2022/01/05 03:31:23;;;;;;;15.27;2.20;;;;;;;;;;5148310;27;20110;-55
2022/01/05 03:33:49;;;;;;;20.73;3.30;;;;;;;;;;5130626;27;20035;-57
2022/01/05 03:36:15;;;;;;;12.65;2.30;;;;;;;;;;5149139;27;20046;-55
2022/01/05 03:38:41;;;;;;;16.30;2.55;;;;;;;;;;5149050;27;20046;-54
2022/01/05 03:41:07;;;;;;;17.67;3.85;;;;;;;;;;5148798;27;20574;-55
2022/01/05 03:43:33;;;;;;;20.60;2.90;;;;;;;;;;5148616;27;20043;-55
2022/01/05 03:45:59;;;;;;;11.32;3.20;;;;;;;;;;5148703;27;20043;-56
2022/01/05 03:48:25;;;;;;;22.13;2.85;;;;;;;;;;5149395;27;20077;-55
2022/01/05 03:50:52;;;;;;;14.60;2.95;;;;;;;;;;5147947;27;20047;-55
2022/01/05 03:53:18;;;;;;;16.90;2.75;;;;;;;;;;5148776;27;20062;-55
2022/01/05 03:55:45;;;;;;;15.38;3.30;;;;;;;;;;5148474;27;20092;-54
2022/01/05 03:58:12;;;;;;;14.18;3.10;;;;;;;;;;5148652;27;20091;-54
2022/01/05 04:00:46;;;;;;;15.38;2.33;;;;;;;;;;5148215;27;20050;-54
2022/01/05 04:03:12;;;;;;;15.25;2.97;;;;;;;;;;5149216;27;20043;-55
2022/01/05 04:05:38;;;;;;;10.25;2.63;;;;;;;;;;5147718;27;20043;-55
2022/01/05 04:08:05;;;;;;;18.55;2.63;;;;;;;;;;5148401;27;20079;-54
2022/01/05 04:10:31;;;;;;;19.10;3.53;;;;;;;;;;5148492;27;20118;-55
2022/01/05 04:12:57;;;;;;;8.25;2.25;;;;;;;;;;5148564;27;20051;-55
2022/01/05 04:15:23;;;;;;;13.93;2.20;;;;;;;;;;5147828;27;20043;-55
2022/01/05 04:17:50;;;;;;;18.60;3.25;;;;;;;;;;5148743;27;20050;-55
2022/01/05 04:20:16;;;;;;;15.10;2.10;;;;;;;;;;5147207;27;20088;-55
2022/01/05 04:22:43;;;;;;;13.38;1.98;;;;;;;;;;5129378;27;20035;-55
2022/01/05 04:25:09;;;;;;;11.13;3.45;;;;;;;;;;5148148;27;20054;-56
2022/01/05 04:27:35;;;;;;;11.48;2.75;;;;;;;;;;5147818;27;20039;-57
2022/01/05 04:30:01;;;;;;;12.25;1.95;;;;;;;;;;5147986;27;20396;-55
2022/01/05 04:32:27;;;;;;;14.35;1.80;;;;;;;;;;5148483;27;20095;-54
2022/01/05 04:34:53;;;;;;;9.90;2.78;;;;;;;;;;5147690;27;20046;-54
2022/01/05 04:37:20;;;;;;;12.15;1.60;;;;;;;;;;5147101;27;20035;-54
2022/01/05 04:39:47;;;;;;;9.77;2.92;;;;;;;;;;5146856;27;20048;-54
2022/01/05 04:42:13;;;;;;;12.18;2.03;;;;;;;;;;5147650;27;20035;-55
2022/01/05 04:44:39;;;;;;;16.05;2.85;;;;;;;;;;5148308;27;20331;-54
2022/01/05 04:47:07;;;;;;;13.50;3.13;;;;;;;;;;5147679;27;20102;-55
2022/01/05 04:49:33;;;;;;;13.63;2.65;;;;;;;;;;5147549;27;20046;-55
2022/01/05 04:51:59;;;;;;;12.77;3.08;;;;;;;;;;5126344;28;20040;-54
2022/01/05 04:54:25;;;;;;;8.60;1.95;;;;;;;;;;5127117;28;20048;-53
2022/01/05 04:56:52;;;;;;;14.13;3.15;;;;;;;;;;5142190;27;20049;-53
2022/01/05 04:59:18;;;;;;;20.60;3.65;;;;;;;;;;5147844;27;20055;-54
2022/01/05 05:01:44;;;;;;;16.10;2.28;;;;;;;;;;5147269;27;20095;-53
2022/01/05 05:04:10;;;;;;;11.68;3.08;;;;;;;;;;5147236;27;20071;-54
2022/01/05 05:06:36;;;;;;;14.85;2.35;;;;;;;;;;5146495;27;20065;-55
2022/01/05 05:09:02;;;;;;;19.27;2.42;;;;;;;;;;5146878;27;20145;-56
2022/01/05 05:11:28;;;;;;;11.13;2.92;;;;;;;;;;5147058;27;20047;-55
2022/01/05 05:13:54;;;;;;;18.50;2.88;;;;;;;;;;5128997;27;20073;-56
2022/01/05 05:16:21;;;;;;;16.48;2.95;;;;;;;;;;5146136;27;20039;-55
2022/01/05 05:18:47;;;;;;;14.90;2.60;;;;;;;;;;5146652;27;20126;-56
2022/01/05 05:21:13;;;;;;;16.00;2.95;;;;;;;;;;5146388;27;20047;-55
2022/01/05 05:23:39;;;;;;;26.75;5.53;;;;;;;;;;5146860;27;20035;-55
2022/01/05 05:26:05;;;;;;;15.57;3.40;;;;;;;;;;5147410;27;20053;-55
2022/01/05 05:28:31;;;;;;;19.75;4.00;;;;;;;;;;5146879;27;20192;-55
2022/01/05 05:30:58;;;;;;;17.02;2.50;;;;;;;;;;5146819;27;20049;-56
2022/01/05 05:33:24;;;;;;;15.75;2.67;;;;;;;;;;5146806;27;20172;-54
2022/01/05 05:35:50;;;;;;;13.27;2.78;;;;;;;;;;5145508;27;20047;-56
2022/01/05 05:38:16;;;;;;;21.90;3.85;;;;;;;;;;5146730;27;20118;-54
2022/01/05 05:40:43;;;;;;;11.75;2.53;;;;;;;;;;5146726;27;20039;-55
2022/01/05 05:43:09;;;;;;;9.00;2.30;;;;;;;;;;5146609;27;20058;-56
2022/01/05 05:45:35;;;;;;;24.33;2.90;;;;;;;;;;5146405;27;20043;-56
2022/01/05 05:48:02;;;;;;;16.52;2.58;;;;;;;;;;5146562;27;20051;-58
2022/01/05 05:50:29;;;;;;;13.13;2.10;;;;;;;;;;5144819;27;20043;-57
2022/01/05 05:52:55;;;;;;;6.68;1.92;;;;;;;;;;5146626;27;20043;-56
2022/01/05 05:55:21;;;;;;;19.35;2.30;;;;;;;;;;5146249;27;20065;-55
2022/01/05 05:57:47;;;;;;;14.35;2.25;;;;;;;;;;5146357;27;20043;-55
2022/01/05 06:00:14;;;;;;;16.30;2.90;;;;;;;;;;5146147;27;20043;-53
2022/01/05 06:02:40;;;;;;;17.90;2.45;;;;;;;;;;5146363;27;20098;-55
2022/01/05 06:05:06;;;;;;;13.45;2.33;;;;;;;;;;5145176;27;20123;-55
2022/01/05 06:07:32;;;;;;;12.75;2.08;;;;;;;;;;5146560;27;20047;-56
2022/01/05 06:09:59;;;;;;;14.30;2.47;;;;;;;;;;5145692;27;20069;-56
2022/01/05 06:12:25;;;;;;;13.82;2.33;;;;;;;;;;5145919;27;20057;-56
2022/01/05 06:14:51;;;;;;;19.35;3.33;;;;;;;;;;5144710;27;20062;-55
2022/01/05 06:17:18;;;;;;;21.98;3.17;;;;;;;;;;5145509;27;20043;-54
2022/01/05 06:19:44;;;;;;;18.00;3.58;;;;;;;;;;5145549;27;20035;-55
2022/01/05 06:22:11;;;;;;;13.45;2.25;;;;;;;;;;5127275;27;20133;-53
2022/01/05 06:24:39;;;;;;;11.48;2.55;;;;;;;;;;5145693;27;20047;-54
2022/01/05 06:27:05;;;;;;;19.00;2.55;;;;;;;;;;5145893;27;20494;-55
2022/01/05 06:29:31;;;;;;;18.67;2.53;;;;;;;;;;5145661;27;20094;-54
2022/01/05 06:31:57;;;;;;;19.42;2.35;;;;;;;;;;5144733;27;20079;-55
2022/01/05 06:34:23;;;;;;;15.30;2.90;;;;;;;;;;5143941;27;20525;-54
2022/01/05 06:36:50;;;;;;;11.43;2.45;;;;;;;;;;5144345;27;20047;-54
2022/01/05 06:39:16;;;;;;;19.48;2.35;;;;;;;;;;5144476;27;20353;-55
2022/01/05 06:41:42;;;;;;;22.35;3.53;;;;;;;;;;5145209;27;20047;-57
2022/01/05 06:44:08;;;;;;;30.75;4.38;;;;;;;;;;5144927;27;20103;-56
2022/01/05 06:46:34;;;;;;;21.45;3.20;;;;;;;;;;5143117;27;20055;-57
2022/01/05 06:49:00;;;;;;;20.08;3.75;;;;;;;;;;5141920;27;20054;-56
2022/01/05 06:51:26;;;;;;;32.95;4.53;;;;;;;;;;5144012;27;20110;-55
2022/01/05 06:53:53;;;;;;;13.77;2.78;;;;;;;;;;5145363;27;20069;-56
2022/01/05 06:56:19;;;;;;;19.48;2.83;;;;;;;;;;5145216;27;20455;-56
2022/01/05 06:58:45;;;;;;;17.73;3.17;;;;;;;;;;5145319;27;20047;-55
2022/01/05 07:01:11;;;;;;;21.88;3.17;;;;;;;;;;5140133;28;20063;-55
2022/01/05 07:03:37;;;;;;;19.50;2.72;;;;;;;;;;5144697;27;20039;-56
2022/01/05 07:06:04;;;;;;;13.40;2.25;;;;;;;;;;5151203;27;20068;-55
2022/01/05 07:08:30;;;;;;;21.35;3.15;;;;;;;;;;5152212;27;20039;-55
2022/01/05 07:10:56;;;;;;;16.83;2.13;;;;;;;;;;5151929;27;20050;-56
2022/01/05 07:13:22;;;;;;;14.77;1.88;;;;;;;;;;5152263;27;20080;-56
2022/01/05 07:15:49;;;;;;;11.05;2.58;;;;;;;;;;5151697;27;20116;-56
2022/01/05 07:18:15;;;;;;;16.58;2.25;;;;;;;;;;5151167;27;20057;-55
2022/01/05 07:20:42;;;;;;;10.77;2.00;;;;;;;;;;5151080;27;20059;-55
2022/01/05 07:23:09;;;;;;;21.85;2.60;;;;;;;;;;5150190;27;20047;-55
2022/01/05 07:25:35;;;;;;;14.35;1.70;;;;;;;;;;5151326;27;20540;-54
2022/01/05 07:28:01;;;;;;;8.65;2.15;;;;;;;;;;5151031;27;20087;-55
2022/01/05 07:30:27;;;;;;;12.20;1.65;;;;;;;;;;5146853;27;20051;-55
2022/01/05 07:32:53;;;;;;;18.23;2.63;;;;;;;;;;5147328;27;20054;-55
2022/01/05 07:35:19;;;;;;;9.80;2.00;;;;;;;;;;5150271;27;20058;-56
2022/01/05 07:37:46;;;;;;;19.38;2.58;;;;;;;;;;5150874;27;20566;-56
2022/01/05 07:40:12;;;;;;;11.10;2.30;;;;;;;;;;5143999;27;20112;-54
2022/01/05 07:42:39;;;;;;;15.23;2.53;;;;;;;;;;5150192;27;20051;-55
2022/01/05 07:45:06;;;;;;;19.58;2.47;;;;;;;;;;5150620;27;20051;-55
2022/01/05 07:47:32;;;;;;;16.63;2.15;;;;;;;;;;5150448;27;20384;-56
2022/01/05 07:49:58;;;;;;;16.23;2.25;;;;;;;;;;5141303;27;20691;-55
2022/01/05 07:52:25;;;;;;;26.25;2.85;;;;;;;;;;5140365;27;20064;-56
2022/01/05 07:54:52;;;;;;;10.77;2.60;;;;;;;;;;5142507;27;20526;-55
2022/01/05 07:57:18;;;;;;;10.88;2.03;;;;;;;;;;5149293;27;20445;-55
2022/01/05 07:59:44;;;;;;;17.42;1.95;;;;;;;;;;5143240;27;20050;-55
2022/01/05 08:02:10;;;;;;;18.58;2.58;;;;;;;;;;5149013;27;20095;-57
2022/01/05 08:04:37;;;;;;;20.60;2.92;;;;;;;;;;5147422;27;20054;-56
2022/01/05 08:07:03;;;;;;;13.68;2.92;;;;;;;;;;5149501;27;20074;-56
2022/01/05 08:09:29;;;;;;;18.08;3.53;;;;;;;;;;5150865;27;20066;-56
2022/01/05 08:11:58;;;;;;;8.35;1.65;;;;;;;;;;5146784;27;20074;-55
2022/01/05 08:14:25;;;;;;;12.25;1.75;;;;;;;;;;5146976;27;20042;-56
2022/01/05 08:16:51;;;;;;;10.60;1.50;;;;;;;;;;5147983;27;20039;-55
2022/01/05 08:19:17;;;;;;;12.50;1.98;;;;;;;;;;5147283;27;20451;-55
2022/01/05 08:21:43;;;;;;;12.43;2.20;;;;;;;;;;5145747;27;20170;-55
2022/01/05 08:24:09;;;;;;;12.13;1.58;;;;;;;;;;5145102;27;20107;-56
2022/01/05 08:26:35;;;;;;;13.27;2.15;;;;;;;;;;5146536;27;20100;-56
2022/01/05 08:29:01;;;;;;;6.25;1.83;;;;;;;;;;5144681;27;20192;-58
2022/01/05 08:31:27;;;;;;;6.72;1.67;;;;;;;;;;5146325;27;20533;-57
2022/01/05 08:33:56;;;;;;;13.25;2.17;;;;;;;;;;5133340;27;20099;-59
2022/01/05 08:36:23;;;;;;;8.75;1.88;;;;;;;;;;5144770;27;20504;-56
2022/01/05 08:38:49;;;;;;;21.45;2.85;;;;;;;;;;5147373;27;20088;-56
2022/01/05 08:41:15;;;;;;;18.85;2.42;;;;;;;;;;5146668;27;20467;-57
2022/01/05 08:43:41;;;;;;;15.88;2.60;;;;;;;;;;5145644;27;20075;-59
2022/01/05 08:46:07;;;;;;;15.60;2.17;;;;;;;;;;5142522;27;20039;-58
2022/01/05 08:48:33;;;;;;;17.70;2.90;;;;;;;;;;5146644;27;20043;-58
2022/01/05 08:51:00;;;;;;;18.33;3.13;;;;;;;;;;5146033;27;20046;-57
2022/01/05 08:53:26;;;;;;;21.55;3.30;;;;;;;;;;5123156;27;20047;-57
2022/01/05 08:55:52;;;;;;;20.15;3.10;;;;;;;;;;5139873;27;20049;-57
2022/01/05 08:58:19;;;;;;;20.05;3.28;;;;;;;;;;5137807;27;20051;-57
2022/01/05 09:00:45;;;;;;;24.23;3.92;;;;;;;;;;5140286;27;20085;-57
2022/01/05 09:03:13;;;;;;;17.17;2.90;;;;;;;;;;5147411;27;20078;-57
2022/01/05 09:05:39;;;;;;;;;;;;;;;;;;5145363;27;20068;-57
2022/01/05 09:08:06;;;;;;;25.60;3.00;;;;;;;;;;5133953;27;19962;-57
2022/01/05 09:10:32;;;;;;;23.50;3.97;;;;;;;;;;5144017;27;20085;-55
2022/01/05 09:12:59;;;;;;;28.23;3.53;;;;;;;;;;5138709;27;20070;-57
2022/01/05 09:15:25;;;;;;;16.00;3.63;;;;;;;;;;5146440;27;20039;-56
2022/01/05 09:17:52;;;;;;;25.90;3.50;;;;;;;;;;5146914;27;20370;-56
2022/01/05 09:20:18;;;;;;;21.38;3.40;;;;;;;;;;5138143;27;20051;-57
2022/01/05 09:22:44;;;;;;;12.90;2.40;;;;;;;;;;5146410;27;20054;-57
2022/01/05 09:25:11;;;;;;;19.00;3.00;;;;;;;;;;5127448;27;20046;-57
2022/01/05 09:27:39;;;;;;;18.27;2.73;;;;;;;;;;5144974;27;20039;-55
2022/01/05 09:30:06;;;;;;;19.63;2.72;;;;;;;;;;5146458;27;20293;-57
2022/01/05 09:32:32;;;;;;;22.27;2.88;;;;;;;;;;5132733;27;20039;-56
2022/01/05 09:34:58;;;;;;;15.05;2.47;;;;;;;;;;5141583;27;20597;-56
2022/01/05 09:37:28;;;;;;;33.28;3.63;;;;;;;;;;5131142;27;20035;-58
2022/01/05 09:42:40;;;;;;;19.35;2.25;;;;;;;;;;5146056;27;20588;-54
2022/01/05 09:45:27;;;;;;;17.07;2.80;;;;;;;;;;5145898;27;20035;-55
2022/01/05 09:47:56;;;;;;;14.95;3.45;;;;;;;;;;5145842;27;20591;-57
2022/01/05 09:50:22;;;;;;;23.80;4.20;;;;;;;;;;5137768;27;20116;-55
2022/01/05 09:52:48;;;;;;;14.02;3.28;;;;;;;;;;5144145;27;20047;-55
2022/01/05 09:55:16;;;;;;;20.08;3.30;;;;;;;;;;5145129;27;20058;-55
2022/01/05 09:57:43;;;;;;;19.33;3.55;;;;;;;;;;5145918;27;20065;-57
2022/01/05 10:00:12;;;;;;;20.85;3.10;;;;;;;;;;5146218;27;20086;-57
2022/01/05 10:02:39;;;;;;;26.42;3.60;;;;;;;;;;5140634;27;20073;-55
2022/01/05 10:05:08;;;;;;;21.92;3.95;;;;;;;;;;5139177;27;20046;-55
2022/01/05 10:07:35;;;;;;;10.13;2.40;;;;;;;;;;5140864;27;20047;-56
2022/01/05 10:10:01;;;;;;;14.65;2.80;;;;;;;;;;5144803;27;20070;-56
2022/01/05 10:12:27;;;;;;;21.02;3.38;;;;;;;;;;5143077;27;20095;-57
2022/01/05 10:14:53;;;;;;;21.38;3.03;;;;;;;;;;5144191;27;20084;-56
2022/01/05 10:17:26;;;;;;;20.98;3.45;;;;;;;;;;5136206;27;20031;-56
2022/01/05 10:19:59;;;;;;;17.38;3.30;;;;;;;;;;5144847;27;20055;-56
2022/01/05 10:22:33;;;;;;;20.48;3.50;;;;;;;;;;5139448;27;20081;-56
2022/01/05 10:25:00;;;;;;;11.48;3.33;;;;;;;;;;5144443;27;20049;-55
2022/01/05 10:27:27;;;;;;;18.20;4.00;;;;;;;;;;5142408;27;20071;-56
2022/01/05 10:29:58;;;;;;;26.30;3.05;;;;;;;;;;5135605;27;20039;-55
2022/01/05 10:32:25;;;;;;;21.17;3.40;;;;;;;;;;5144123;27;20482;-57
2022/01/05 10:35:03;;;;;;;20.40;4.13;;;;;;;;;;5142755;27;20038;-59
2022/01/05 10:37:30;;;;;;;22.35;3.30;;;;;;;;;;5144069;27;20055;-56
2022/01/05 10:40:05;;;;;;;27.48;3.47;;;;;;;;;;5137029;27;20038;-57
2022/01/05 10:42:32;;;;;;;19.00;3.25;;;;;;;;;;5132270;27;20115;-56
2022/01/05 10:44:58;;;;;;;22.40;2.97;;;;;;;;;;5135012;27;20050;-57
2022/01/05 10:47:25;;;;;;;22.77;3.75;;;;;;;;;;5139686;27;20046;-56
2022/01/05 10:49:52;;;;;;;22.23;3.50;;;;;;;;;;5143522;27;20043;-57
2022/01/05 10:52:35;;;;;;;16.67;3.38;;;;;;;;;;5142515;27;20285;-57
2022/01/05 10:55:17;;;;;;;17.33;3.63;;;;;;;;;;5144317;27;20441;-58
2022/01/05 10:58:02;;;;;;;34.70;4.10;;;;;;;;;;5133506;28;20104;-58
2022/01/05 11:00:33;;;;;;;43.70;4.57;;;;;;;;;;5141792;27;20042;-58
2022/01/05 11:03:00;;;;;;;28.33;4.00;;;;;;;;;;5125673;28;20039;-56
2022/01/05 11:05:26;;;;;;;34.80;4.45;;;;;;;;;;5142520;28;20047;-57
2022/01/05 11:08:05;;;;;;;24.42;4.20;;;;;;;;;;5145106;28;20047;-56
2022/01/05 11:10:32;;;;;;;22.05;5.75;;;;;;;;;;5136039;28;20046;-57
2022/01/05 11:12:58;;;;;;;21.42;4.13;;;;;;;;;;5142783;28;20043;-56
2022/01/05 11:15:27;;;;;;;33.72;3.97;;;;;;;;;;5142151;28;20053;-57
2022/01/05 11:18:11;;;;;;;24.33;4.05;;;;;;;;;;5142782;28;20046;-56
2022/01/05 11:20:38;;;;;;;31.90;4.38;;;;;;;;;;5141047;28;20076;-58
2022/01/05 11:23:06;;;;;;;21.38;4.38;;;;;;;;;;5139491;28;20126;-57
2022/01/05 11:25:34;;;;;;;17.17;3.97;;;;;;;;;;5140341;28;20114;-56
2022/01/05 11:28:00;;;;;;;;;;;;;;;;;;5140357;28;20027;-56
2022/01/05 11:30:26;;;;;;;22.25;4.20;;;;;;;;;;5132869;28;19926;-57
2022/01/05 11:32:52;;;;;;;29.98;4.50;;;;;;;;;;5143129;28;20507;-57
2022/01/05 11:35:18;;;;;;;30.85;4.15;;;;;;;;;;5143809;28;20103;-56
2022/01/05 11:37:46;;;;;;;31.05;4.10;;;;;;;;;;5141319;28;20066;-56
2022/01/05 11:40:13;;;;;;;20.23;3.63;;;;;;;;;;5142929;28;20051;-57
2022/01/05 11:42:40;;;;;;;25.35;4.60;;;;;;;;;;5144088;28;20044;-56
2022/01/05 11:45:07;;;;;;;22.30;3.85;;;;;;;;;;5144975;28;20114;-58
2022/01/05 11:47:36;;;;;;;16.70;3.70;;;;;;;;;;5143976;28;20132;-57
2022/01/05 11:50:14;;;;;;;18.80;3.17;;;;;;;;;;5138986;27;20202;-57
2022/01/05 11:52:55;;;;;;;21.10;4.35;;;;;;;;;;5145303;27;20066;-57
2022/01/05 11:55:21;;;;;;;22.33;3.33;;;;;;;;;;5148226;27;20096;-57
2022/01/05 11:58:26;;;;;;;26.30;2.92;;;;;;;;;;5145083;27;20162;-58
2022/01/05 12:01:11;;;;;;;17.55;3.80;;;;;;;;;;5082700;28;20052;-56
2022/01/05 12:03:53;;;;;;;18.52;3.53;;;;;;;;;;5082542;28;20112;-57
2022/01/05 12:06:22;;;;;;;15.05;3.30;;;;;;;;;;5072981;28;20059;-57
2022/01/05 12:08:52;;;;;;;12.90;3.15;;;;;;;;;;5083479;28;20041;-57
2022/01/05 12:11:28;;;;;;;15.77;3.30;;;;;;;;;;5079242;28;20044;-56
2022/01/05 12:13:54;;;;;;;15.88;3.90;;;;;;;;;;5089939;28;20056;-57
2022/01/05 12:16:20;;;;;;;16.08;3.15;;;;;;;;;;5080504;28;20048;-57
2022/01/05 12:19:03;;;;;;;9.13;1.70;;;;;;;;;;5081960;28;20539;-57
2022/01/05 12:21:42;;;;;;;11.07;2.33;;;;;;;;;;5080677;28;20036;-56
2022/01/05 12:24:08;;;;;;;11.10;2.05;;;;;;;;;;5084091;28;20109;-57
2022/01/05 12:26:34;;;;;;;14.32;2.00;;;;;;;;;;5078918;28;20056;-56
2022/01/05 12:29:01;;;;;;;14.70;2.95;;;;;;;;;;5082670;28;20041;-58
2022/01/05 12:31:46;;;;;;;10.73;2.45;;;;;;;;;;5105371;27;20040;-57
2022/01/05 12:34:12;;;;;;;16.65;3.13;;;;;;;;;;5130032;27;20804;-58
2022/01/05 12:36:39;;;;;;;9.50;2.50;;;;;;;;;;5140967;27;20043;-57
2022/01/05 12:39:06;;;;;;;13.83;2.37;;;;;;;;;;5135544;27;20053;-57
2022/01/05 12:41:42;;;;;;;14.53;2.90;;;;;;;;;;5143032;27;20345;-57
2022/01/05 12:44:22;;;;;;;19.60;3.25;;;;;;;;;;5145197;27;20439;-57
2022/01/05 12:46:52;;;;;;;14.77;3.13;;;;;;;;;;5144928;27;20050;-57
2022/01/05 12:49:29;;;;;;;18.67;3.88;;;;;;;;;;5140268;27;20126;-58
2022/01/05 12:52:02;;;;;;;22.88;3.42;;;;;;;;;;5142225;27;20046;-57
2022/01/05 12:54:31;;;;;;;20.85;4.22;;;;;;;;;;5145689;27;20464;-58
2022/01/05 12:56:57;;;;;;;28.42;4.88;;;;;;;;;;5144780;27;20559;-57
2022/01/05 12:59:31;;;;;;;18.60;3.00;;;;;;;;;;5139689;27;20066;-58
2022/01/05 13:02:00;;;;;;;14.40;3.38;;;;;;;;;;5142862;27;20122;-56
2022/01/05 13:04:27;;;;;;;17.08;2.95;;;;;;;;;;5143630;27;20042;-56
2022/01/05 13:06:57;;;;;;;19.50;3.50;;;;;;;;;;5143492;27;20072;-57
2022/01/05 13:09:34;;;;;;;20.65;4.03;;;;;;;;;;5141668;27;20284;-57
2022/01/05 13:12:13;;;;;;;12.27;3.20;;;;;;;;;;5145200;27;20078;-57
2022/01/05 13:14:41;;;;;;;24.50;3.47;;;;;;;;;;5137438;27;20069;-56
2022/01/05 13:17:10;;;;;;;11.70;4.05;;;;;;;;;;5146509;27;20046;-56
2022/01/05 13:19:42;;;;;;;11.98;3.00;;;;;;;;;;5145112;27;20054;-57
2022/01/05 13:22:17;;;;;;;20.05;4.65;;;;;;;;;;5143283;27;20055;-56
2022/01/05 13:24:51;;;;;;;27.42;4.32;;;;;;;;;;5145093;27;20047;-57
2022/01/05 13:27:18;;;;;;;28.95;5.78;;;;;;;;;;5141741;27;20039;-57
2022/01/05 13:29:46;;;;;;;24.77;5.05;;;;;;;;;;5138165;27;20090;-58
2022/01/05 13:32:13;;;;;;;23.60;3.75;;;;;;;;;;5134613;27;20043;-56
2022/01/05 13:34:45;;;;;;;24.27;4.05;;;;;;;;;;5143880;27;20037;-57
2022/01/05 13:37:12;;;;;;;18.33;2.90;;;;;;;;;;5133955;27;20069;-58
2022/01/05 13:39:38;;;;;;;16.98;2.15;;;;;;;;;;5139646;27;20054;-58
2022/01/05 13:42:05;;;;;;;16.17;2.30;;;;;;;;;;5140935;27;20043;-58
2022/01/05 13:44:31;;;;;;;16.75;3.28;;;;;;;;;;5143271;27;20041;-58
2022/01/05 13:46:57;;;;;;;14.70;3.40;;;;;;;;;;5140809;27;20043;-58
2022/01/05 13:49:25;;;;;;;19.75;2.60;;;;;;;;;;5126072;27;20413;-58
2022/01/05 13:52:11;;;;;;;11.52;2.65;;;;;;;;;;5144725;27;20047;-57
2022/01/05 13:54:38;;;;;;;15.15;2.88;;;;;;;;;;5144700;27;20078;-57
2022/01/05 13:57:05;;;;;;;20.35;3.45;;;;;;;;;;5139295;27;20066;-57
2022/01/05 13:59:42;;;;;;;14.38;2.88;;;;;;;;;;5142735;27;20035;-57
2022/01/05 14:02:09;;;;;;;19.67;3.13;;;;;;;;;;5144905;27;20047;-58
2022/01/05 14:04:51;;;;;;;17.60;3.47;;;;;;;;;;5143707;27;20078;-57
2022/01/05 14:07:19;;;;;;;23.65;3.60;;;;;;;;;;5142679;27;20047;-57
2022/01/05 14:09:45;;;;;;;13.75;3.97;;;;;;;;;;5145882;27;20060;-58
2022/01/05 14:12:49;;;;;;;15.77;2.28;;;;;;;;;;5133739;27;20042;-56
2022/01/05 14:15:16;;;;;;;17.80;2.97;;;;;;;;;;5054182;28;20181;-58
2022/01/05 14:17:59;;;;;;;10.38;2.17;;;;;;;;;;5056700;28;20112;-58
2022/01/05 14:20:25;;;;;;;12.93;2.45;;;;;;;;;;5050764;28;20052;-58
2022/01/05 14:23:09;;;;;;;19.13;3.08;;;;;;;;;;5045013;28;20045;-58
2022/01/05 14:25:39;;;;;;;18.30;3.40;;;;;;;;;;5051223;28;20037;-58
2022/01/05 14:28:19;;;;;;;14.15;2.70;;;;;;;;;;5047280;28;20037;-58
2022/01/05 14:30:52;;;;;;;14.52;3.45;;;;;;;;;;5045219;28;20117;-56
2022/01/05 14:33:31;;;;;;;20.20;4.20;;;;;;;;;;5061287;28;20163;-58
2022/01/05 14:35:59;;;;;;;36.80;3.78;;;;;;;;;;5056259;28;20049;-57
2022/01/05 14:38:25;;;;;;;26.40;5.38;;;;;;;;;;5060560;28;20041;-57
2022/01/05 14:40:53;;;;;;;23.70;3.25;;;;;;;;;;5056932;28;20074;-57